sensor_id;sensor_type;location;lat;lon;timestamp;pressure;altitude;pressure_sealevel;temperature;humidity
78679;BME280;67994;59.334;13.528;2023-06-22T00:00:00;100700.0;;;17.8;83.8
78679;BME280;67994;59.334;13.528;2023-06-22T00:01:00;100700.0;;;17.8;83.4
78679;BME280;67994;59.334;13.528;2023-06-22T00:02:00;100700.0;;;17.9;83.7
78679;BME280;67994;59.334;13.528;2023-06-22T00:03:00;100700.0;;;17.8;83.3
78679;BME280;67994;59.334;13.528;2023-06-22T00:04:00;100700.0;;;17.8;84.3
78679;BME280;67994;59.334;13.528;2023-06-22T00:05:00;100700.0;;;17.7;84.3
78679;BME280;67994;59.334;13.528;2023-06-22T00:06:00;100700.0;;;17.7;84.6
78679;BME280;67994;59.334;13.528;2023-06-22T00:07:00;100700.0;;;17.7;84.5
78679;BME280;67994;59.334;13.528;2023-06-22T00:08:02;100700.0;;;17.8;84.5
78679;BME280;67994;59.334;13.528;2023-06-22T00:09:00;100700.0;;;17.7;84.6
78679;BME280;67994;59.334;13.528;2023-06-22T00:10:00;100700.0;;;17.7;84.6
78679;BME280;67994;59.334;13.528;2023-06-22T00:11:00;100700.0;;;17.7;84.6
78679;BME280;67994;59.334;13.528;2023-06-22T00:12:00;100700.0;;;17.8;84.3
78679;BME280;67994;59.334;13.528;2023-06-22T00:13:00;100700.0;;;17.9;84.0
78679;BME280;67994;59.334;13.528;2023-06-22T00:14:00;100700.0;;;17.8;84.5
78679;BME280;67994;59.334;13.528;2023-06-22T00:15:00;100700.0;;;17.8;84.7
78679;BME280;67994;59.334;13.528;2023-06-22T00:16:00;100700.0;;;17.9;83.5
78679;BME280;67994;59.334;13.528;2023-06-22T00:17:00;100700.0;;;17.9;83.9
78679;BME280;67994;59.334;13.528;2023-06-22T00:18:00;100700.0;;;17.9;82.9
78679;BME280;67994;59.334;13.528;2023-06-22T00:19:00;100700.0;;;17.8;84.4
78679;BME280;67994;59.334;13.528;2023-06-22T00:20:00;100700.0;;;17.8;84.2
78679;BME280;67994;59.334;13.528;2023-06-22T00:21:00;100700.0;;;17.8;84.5
78679;BME280;67994;59.334;13.528;2023-06-22T00:22:01;100700.0;;;17.8;84.2
78679;BME280;67994;59.334;13.528;2023-06-22T00:23:00;100700.0;;;17.8;84.5
78679;BME280;67994;59.334;13.528;2023-06-22T00:24:00;100700.0;;;17.8;84.5
78679;BME280;67994;59.334;13.528;2023-06-22T00:25:00;100700.0;;;17.7;84.6
78679;BME280;67994;59.334;13.528;2023-06-22T00:26:00;100700.0;;;17.6;84.5
78679;BME280;67994;59.334;13.528;2023-06-22T00:27:00;100700.0;;;17.7;84.0
78679;BME280;67994;59.334;13.528;2023-06-22T00:28:01;100700.0;;;17.8;84.5
78679;BME280;67994;59.334;13.528;2023-06-22T00:29:00;100700.0;;;17.8;84.8
78679;BME280;67994;59.334;13.528;2023-06-22T00:30:00;100700.0;;;17.6;85.3
78679;BME280;67994;59.334;13.528;2023-06-22T00:31:00;100700.0;;;17.7;83.8
78679;BME280;67994;59.334;13.528;2023-06-22T00:32:00;100700.0;;;17.7;85.3
78679;BME280;67994;59.334;13.528;2023-06-22T00:33:01;100700.0;;;17.7;84.9
78679;BME280;67994;59.334;13.528;2023-06-22T00:34:00;100700.0;;;17.6;85.4
78679;BME280;67994;59.334;13.528;2023-06-22T00:35:00;100700.0;;;17.7;84.8
78679;BME280;67994;59.334;13.528;2023-06-22T00:36:00;100700.0;;;17.7;85.1
78679;BME280;67994;59.334;13.528;2023-06-22T00:37:00;100700.0;;;17.8;84.8
78679;BME280;67994;59.334;13.528;2023-06-22T00:38:00;100700.0;;;17.7;85.3
78679;BME280;67994;59.334;13.528;2023-06-22T00:39:00;100700.0;;;17.7;85.3
78679;BME280;67994;59.334;13.528;2023-06-22T00:40:00;100700.0;;;17.7;85.0
78679;BME280;67994;59.334;13.528;2023-06-22T00:41:00;100700.0;;;17.7;85.5
78679;BME280;67994;59.334;13.528;2023-06-22T00:42:00;100700.0;;;17.6;85.7
78679;BME280;67994;59.334;13.528;2023-06-22T00:43:00;100700.0;;;17.6;85.9
78679;BME280;67994;59.334;13.528;2023-06-22T00:44:00;100700.0;;;17.5;85.8
78679;BME280;67994;59.334;13.528;2023-06-22T00:45:00;100700.0;;;17.6;85.3
78679;BME280;67994;59.334;13.528;2023-06-22T00:46:00;100700.0;;;17.5;86.0
78679;BME280;67994;59.334;13.528;2023-06-22T00:47:00;100700.0;;;17.5;85.9
78679;BME280;67994;59.334;13.528;2023-06-22T00:48:00;100700.0;;;17.5;85.3
78679;BME280;67994;59.334;13.528;2023-06-22T00:49:00;100700.0;;;17.4;86.0
78679;BME280;67994;59.334;13.528;2023-06-22T00:50:00;100700.0;;;17.5;85.0
78679;BME280;67994;59.334;13.528;2023-06-22T00:51:00;100700.0;;;17.5;85.0
78679;BME280;67994;59.334;13.528;2023-06-22T00:52:00;100700.0;;;17.6;84.4
78679;BME280;67994;59.334;13.528;2023-06-22T00:53:01;100700.0;;;17.5;85.7
78679;BME280;67994;59.334;13.528;2023-06-22T00:54:00;100700.0;;;17.5;85.3
78679;BME280;67994;59.334;13.528;2023-06-22T00:55:01;100700.0;;;17.4;85.4
78679;BME280;67994;59.334;13.528;2023-06-22T00:56:00;100700.0;;;17.4;85.9
78679;BME280;67994;59.334;13.528;2023-06-22T00:57:00;100700.0;;;17.5;85.5
78679;BME280;67994;59.334;13.528;2023-06-22T00:58:00;100700.0;;;17.4;85.5
78679;BME280;67994;59.334;13.528;2023-06-22T00:59:00;100700.0;;;17.4;85.2
78679;BME280;67994;59.334;13.528;2023-06-22T01:00:00;100700.0;;;17.4;86.1
78679;BME280;67994;59.334;13.528;2023-06-22T01:01:00;100700.0;;;17.5;85.2
78679;BME280;67994;59.334;13.528;2023-06-22T01:02:00;100700.0;;;17.4;85.9
78679;BME280;67994;59.334;13.528;2023-06-22T01:03:01;100700.0;;;17.4;85.5
78679;BME280;67994;59.334;13.528;2023-06-22T01:04:00;100700.0;;;17.4;85.9
78679;BME280;67994;59.334;13.528;2023-06-22T01:05:00;100700.0;;;17.5;85.0
78679;BME280;67994;59.334;13.528;2023-06-22T01:06:06;100700.0;;;17.5;85.4
78679;BME280;67994;59.334;13.528;2023-06-22T01:07:04;100700.0;;;17.5;85.6
78679;BME280;67994;59.334;13.528;2023-06-22T01:08:09;100700.0;;;17.5;85.7
78679;BME280;67994;59.334;13.528;2023-06-22T01:09:02;100700.0;;;17.5;85.4
78679;BME280;67994;59.334;13.528;2023-06-22T01:10:06;100700.0;;;17.5;85.7
78679;BME280;67994;59.334;13.528;2023-06-22T01:11:05;100700.0;;;17.5;85.6
78679;BME280;67994;59.334;13.528;2023-06-22T01:12:02;100700.0;;;17.5;85.5
78679;BME280;67994;59.334;13.528;2023-06-22T01:13:04;100700.0;;;17.6;85.6
78679;BME280;67994;59.334;13.528;2023-06-22T01:14:04;100700.0;;;17.4;85.8
78679;BME280;67994;59.334;13.528;2023-06-22T01:15:07;100700.0;;;17.6;85.4
78679;BME280;67994;59.334;13.528;2023-06-22T01:16:02;100700.0;;;17.6;85.7
78679;BME280;67994;59.334;13.528;2023-06-22T01:17:01;100700.0;;;17.5;85.9
78679;BME280;67994;59.334;13.528;2023-06-22T01:18:03;100700.0;;;17.5;85.4
78679;BME280;67994;59.334;13.528;2023-06-22T01:19:07;100700.0;;;17.6;85.3
78679;BME280;67994;59.334;13.528;2023-06-22T01:20:01;100700.0;;;17.5;85.6
78679;BME280;67994;59.334;13.528;2023-06-22T01:21:00;100700.0;;;17.5;86.1
78679;BME280;67994;59.334;13.528;2023-06-22T01:22:01;100700.0;;;17.6;85.2
78679;BME280;67994;59.334;13.528;2023-06-22T01:23:09;100700.0;;;17.6;84.7
78679;BME280;67994;59.334;13.528;2023-06-22T01:24:10;100700.0;;;17.5;84.9
78679;BME280;67994;59.334;13.528;2023-06-22T01:25:09;100700.0;;;17.6;85.0
78679;BME280;67994;59.334;13.528;2023-06-22T01:26:05;100700.0;;;17.4;85.6
78679;BME280;67994;59.334;13.528;2023-06-22T01:27:12;100700.0;;;17.5;85.5
78679;BME280;67994;59.334;13.528;2023-06-22T01:28:05;100700.0;;;17.6;85.3
78679;BME280;67994;59.334;13.528;2023-06-22T01:29:00;100700.0;;;17.5;85.7
78679;BME280;67994;59.334;13.528;2023-06-22T01:30:01;100700.0;;;17.5;85.6
78679;BME280;67994;59.334;13.528;2023-06-22T01:31:00;100700.0;;;17.5;85.2
78679;BME280;67994;59.334;13.528;2023-06-22T01:32:01;100700.0;;;17.4;85.6
78679;BME280;67994;59.334;13.528;2023-06-22T01:33:02;100700.0;;;17.6;84.8
78679;BME280;67994;59.334;13.528;2023-06-22T01:34:02;100700.0;;;17.7;84.9
78679;BME280;67994;59.334;13.528;2023-06-22T01:35:01;100700.0;;;17.6;85.0
78679;BME280;67994;59.334;13.528;2023-06-22T01:36:00;100700.0;;;17.6;85.4
78679;BME280;67994;59.334;13.528;2023-06-22T01:37:00;100700.0;;;17.6;85.6
78679;BME280;67994;59.334;13.528;2023-06-22T01:38:00;100700.0;;;17.6;86.0
78679;BME280;67994;59.334;13.528;2023-06-22T01:39:02;100700.0;;;17.5;85.4
78679;BME280;67994;59.334;13.528;2023-06-22T01:40:01;100700.0;;;17.7;84.5
78679;BME280;67994;59.334;13.528;2023-06-22T01:41:01;100700.0;;;17.7;84.3
78679;BME280;67994;59.334;13.528;2023-06-22T01:42:00;100700.0;;;17.6;85.4
78679;BME280;67994;59.334;13.528;2023-06-22T01:43:01;100700.0;;;17.7;85.3
78679;BME280;67994;59.334;13.528;2023-06-22T01:44:00;100700.0;;;17.6;85.5
78679;BME280;67994;59.334;13.528;2023-06-22T01:45:01;100700.0;;;17.6;85.4
78679;BME280;67994;59.334;13.528;2023-06-22T01:46:01;100700.0;;;17.7;85.3
78679;BME280;67994;59.334;13.528;2023-06-22T01:47:00;100700.0;;;17.6;85.6
78679;BME280;67994;59.334;13.528;2023-06-22T01:48:00;100700.0;;;17.6;85.5
78679;BME280;67994;59.334;13.528;2023-06-22T01:49:01;100700.0;;;17.6;85.6
78679;BME280;67994;59.334;13.528;2023-06-22T01:50:00;100700.0;;;17.5;85.9
78679;BME280;67994;59.334;13.528;2023-06-22T01:51:00;100700.0;;;17.6;85.6
78679;BME280;67994;59.334;13.528;2023-06-22T01:52:00;100700.0;;;17.5;86.0
78679;BME280;67994;59.334;13.528;2023-06-22T01:53:00;100700.0;;;17.7;85.5
78679;BME280;67994;59.334;13.528;2023-06-22T01:54:01;100700.0;;;17.5;85.9
78679;BME280;67994;59.334;13.528;2023-06-22T01:55:00;100700.0;;;17.6;85.7
78679;BME280;67994;59.334;13.528;2023-06-22T01:56:00;100700.0;;;17.6;85.9
78679;BME280;67994;59.334;13.528;2023-06-22T01:57:00;100700.0;;;17.6;85.7
78679;BME280;67994;59.334;13.528;2023-06-22T01:58:00;100700.0;;;17.6;85.9
78679;BME280;67994;59.334;13.528;2023-06-22T01:59:12;100700.0;;;17.6;86.1
78679;BME280;67994;59.334;13.528;2023-06-22T02:00:02;100700.0;;;17.5;86.5
78679;BME280;67994;59.334;13.528;2023-06-22T02:01:06;100700.0;;;17.6;85.6
78679;BME280;67994;59.334;13.528;2023-06-22T02:02:03;100700.0;;;17.6;85.3
78679;BME280;67994;59.334;13.528;2023-06-22T02:03:05;100700.0;;;17.6;85.9
78679;BME280;67994;59.334;13.528;2023-06-22T02:04:03;100700.0;;;17.7;84.7
78679;BME280;67994;59.334;13.528;2023-06-22T02:05:03;100700.0;;;17.6;85.6
78679;BME280;67994;59.334;13.528;2023-06-22T02:06:04;100700.0;;;17.7;84.9
78679;BME280;67994;59.334;13.528;2023-06-22T02:07:01;100700.0;;;17.8;85.4
78679;BME280;67994;59.334;13.528;2023-06-22T02:08:06;100700.0;;;17.8;85.4
78679;BME280;67994;59.334;13.528;2023-06-22T02:09:02;100700.0;;;17.6;85.5
78679;BME280;67994;59.334;13.528;2023-06-22T02:10:02;100700.0;;;17.6;86.0
78679;BME280;67994;59.334;13.528;2023-06-22T02:11:02;100700.0;;;17.7;85.1
78679;BME280;67994;59.334;13.528;2023-06-22T02:12:02;100700.0;;;17.6;86.0
78679;BME280;67994;59.334;13.528;2023-06-22T02:13:02;100700.0;;;17.7;85.6
78679;BME280;67994;59.334;13.528;2023-06-22T02:14:00;100700.0;;;17.6;86.1
78679;BME280;67994;59.334;13.528;2023-06-22T02:15:00;100700.0;;;17.6;85.5
78679;BME280;67994;59.334;13.528;2023-06-22T02:16:00;100700.0;;;17.7;85.2
78679;BME280;67994;59.334;13.528;2023-06-22T02:17:00;100700.0;;;17.7;85.5
78679;BME280;67994;59.334;13.528;2023-06-22T02:18:00;100700.0;;;17.7;84.7
78679;BME280;67994;59.334;13.528;2023-06-22T02:19:01;100700.0;;;17.6;85.8
78679;BME280;67994;59.334;13.528;2023-06-22T02:20:01;100700.0;;;17.7;85.2
78679;BME280;67994;59.334;13.528;2023-06-22T02:21:00;100700.0;;;17.6;85.6
78679;BME280;67994;59.334;13.528;2023-06-22T02:22:00;100700.0;;;17.7;85.7
78679;BME280;67994;59.334;13.528;2023-06-22T02:23:00;100700.0;;;17.6;85.9
78679;BME280;67994;59.334;13.528;2023-06-22T02:24:00;100700.0;;;17.6;85.8
78679;BME280;67994;59.334;13.528;2023-06-22T02:25:00;100700.0;;;17.6;85.6
78679;BME280;67994;59.334;13.528;2023-06-22T02:26:01;100700.0;;;17.5;85.9
78679;BME280;67994;59.334;13.528;2023-06-22T02:27:01;100700.0;;;17.5;85.5
78679;BME280;67994;59.334;13.528;2023-06-22T02:28:00;100700.0;;;17.7;84.8
78679;BME280;67994;59.334;13.528;2023-06-22T02:29:00;100700.0;;;17.6;85.2
78679;BME280;67994;59.334;13.528;2023-06-22T02:30:00;100700.0;;;17.6;85.0
78679;BME280;67994;59.334;13.528;2023-06-22T02:31:00;100700.0;;;17.7;85.1
78679;BME280;67994;59.334;13.528;2023-06-22T02:32:00;100700.0;;;17.6;85.3
78679;BME280;67994;59.334;13.528;2023-06-22T02:33:00;100700.0;;;17.7;84.7
78679;BME280;67994;59.334;13.528;2023-06-22T02:34:00;100700.0;;;17.5;85.5
78679;BME280;67994;59.334;13.528;2023-06-22T02:35:00;100700.0;;;17.5;85.2
78679;BME280;67994;59.334;13.528;2023-06-22T02:36:00;100700.0;;;17.5;85.3
78679;BME280;67994;59.334;13.528;2023-06-22T02:37:00;100700.0;;;17.6;84.9
78679;BME280;67994;59.334;13.528;2023-06-22T02:38:01;100700.0;;;17.5;85.2
78679;BME280;67994;59.334;13.528;2023-06-22T02:39:00;100700.0;;;17.5;85.0
78679;BME280;67994;59.334;13.528;2023-06-22T02:40:00;100700.0;;;17.5;85.2
78679;BME280;67994;59.334;13.528;2023-06-22T02:41:00;100700.0;;;17.6;84.8
78679;BME280;67994;59.334;13.528;2023-06-22T02:42:00;100700.0;;;17.5;84.9
78679;BME280;67994;59.334;13.528;2023-06-22T02:43:00;100700.0;;;17.6;84.7
78679;BME280;67994;59.334;13.528;2023-06-22T02:44:00;100700.0;;;17.6;84.6
78679;BME280;67994;59.334;13.528;2023-06-22T02:45:00;100700.0;;;17.5;85.1
78679;BME280;67994;59.334;13.528;2023-06-22T02:46:00;100700.0;;;17.5;85.0
78679;BME280;67994;59.334;13.528;2023-06-22T02:47:00;100700.0;;;17.5;85.0
78679;BME280;67994;59.334;13.528;2023-06-22T02:48:00;100700.0;;;17.5;84.9
78679;BME280;67994;59.334;13.528;2023-06-22T02:49:00;100700.0;;;17.5;85.0
78679;BME280;67994;59.334;13.528;2023-06-22T02:50:00;100700.0;;;17.6;84.6
78679;BME280;67994;59.334;13.528;2023-06-22T02:51:00;100700.0;;;17.6;84.5
78679;BME280;67994;59.334;13.528;2023-06-22T02:52:00;100700.0;;;17.6;84.8
78679;BME280;67994;59.334;13.528;2023-06-22T02:53:00;100700.0;;;17.5;84.9
78679;BME280;67994;59.334;13.528;2023-06-22T02:54:00;100700.0;;;17.6;84.7
78679;BME280;67994;59.334;13.528;2023-06-22T02:55:00;100700.0;;;17.6;84.3
78679;BME280;67994;59.334;13.528;2023-06-22T02:56:01;100700.0;;;17.6;84.7
78679;BME280;67994;59.334;13.528;2023-06-22T02:57:00;100700.0;;;17.7;84.3
78679;BME280;67994;59.334;13.528;2023-06-22T02:58:00;100700.0;;;17.7;84.1
78679;BME280;67994;59.334;13.528;2023-06-22T02:59:00;100700.0;;;17.7;84.2
78679;BME280;67994;59.334;13.528;2023-06-22T03:00:03;100700.0;;;17.6;84.4
78679;BME280;67994;59.334;13.528;2023-06-22T03:01:00;100700.0;;;17.6;84.7
78679;BME280;67994;59.334;13.528;2023-06-22T03:02:00;100700.0;;;17.6;84.7
78679;BME280;67994;59.334;13.528;2023-06-22T03:03:00;100700.0;;;17.6;84.4
78679;BME280;67994;59.334;13.528;2023-06-22T03:04:00;100700.0;;;17.6;84.2
78679;BME280;67994;59.334;13.528;2023-06-22T03:05:00;100700.0;;;17.6;84.4
78679;BME280;67994;59.334;13.528;2023-06-22T03:06:00;100700.0;;;17.6;85.2
78679;BME280;67994;59.334;13.528;2023-06-22T03:07:00;100700.0;;;17.7;84.6
78679;BME280;67994;59.334;13.528;2023-06-22T03:08:00;100700.0;;;17.6;84.6
78679;BME280;67994;59.334;13.528;2023-06-22T03:09:01;100700.0;;;17.7;84.9
78679;BME280;67994;59.334;13.528;2023-06-22T03:10:00;100700.0;;;17.7;84.9
78679;BME280;67994;59.334;13.528;2023-06-22T03:11:00;100700.0;;;17.6;84.3
78679;BME280;67994;59.334;13.528;2023-06-22T03:12:00;100700.0;;;17.6;84.8
78679;BME280;67994;59.334;13.528;2023-06-22T03:13:00;100700.0;;;17.7;83.8
78679;BME280;67994;59.334;13.528;2023-06-22T03:14:00;100700.0;;;17.7;83.5
78679;BME280;67994;59.334;13.528;2023-06-22T03:15:00;100700.0;;;17.7;84.6
78679;BME280;67994;59.334;13.528;2023-06-22T03:16:00;100700.0;;;17.7;84.2
78679;BME280;67994;59.334;13.528;2023-06-22T03:17:00;100700.0;;;17.7;84.4
78679;BME280;67994;59.334;13.528;2023-06-22T03:18:00;100700.0;;;17.6;84.9
78679;BME280;67994;59.334;13.528;2023-06-22T03:19:00;100700.0;;;17.6;84.2
78679;BME280;67994;59.334;13.528;2023-06-22T03:20:00;100700.0;;;17.7;84.6
78679;BME280;67994;59.334;13.528;2023-06-22T03:21:00;100700.0;;;17.7;84.5
78679;BME280;67994;59.334;13.528;2023-06-22T03:22:00;100700.0;;;17.6;84.4
78679;BME280;67994;59.334;13.528;2023-06-22T03:23:01;100700.0;;;17.7;84.0
78679;BME280;67994;59.334;13.528;2023-06-22T03:24:00;100700.0;;;17.7;84.5
78679;BME280;67994;59.334;13.528;2023-06-22T03:25:00;100700.0;;;17.8;83.8
78679;BME280;67994;59.334;13.528;2023-06-22T03:26:01;100700.0;;;17.8;84.4
78679;BME280;67994;59.334;13.528;2023-06-22T03:27:00;100700.0;;;17.9;83.8
78679;BME280;67994;59.334;13.528;2023-06-22T03:28:00;100700.0;;;17.8;84.5
78679;BME280;67994;59.334;13.528;2023-06-22T03:29:00;100700.0;;;17.9;83.9
78679;BME280;67994;59.334;13.528;2023-06-22T03:30:00;100700.0;;;17.7;84.3
78679;BME280;67994;59.334;13.528;2023-06-22T03:31:00;100700.0;;;17.8;83.4
78679;BME280;67994;59.334;13.528;2023-06-22T03:32:00;100700.0;;;17.8;84.2
78679;BME280;67994;59.334;13.528;2023-06-22T03:33:00;100700.0;;;17.8;83.8
78679;BME280;67994;59.334;13.528;2023-06-22T03:34:00;100700.0;;;17.9;83.9
78679;BME280;67994;59.334;13.528;2023-06-22T03:35:01;100700.0;;;17.9;83.7
78679;BME280;67994;59.334;13.528;2023-06-22T03:36:00;100700.0;;;18.0;83.2
78679;BME280;67994;59.334;13.528;2023-06-22T03:37:00;100700.0;;;17.9;83.8
78679;BME280;67994;59.334;13.528;2023-06-22T03:38:00;100700.0;;;18.1;83.4
78679;BME280;67994;59.334;13.528;2023-06-22T03:39:00;100700.0;;;17.9;84.4
78679;BME280;67994;59.334;13.528;2023-06-22T03:40:00;100700.0;;;18.1;83.6
78679;BME280;67994;59.334;13.528;2023-06-22T03:41:00;100700.0;;;18.3;82.7
78679;BME280;67994;59.334;13.528;2023-06-22T03:42:00;100700.0;;;18.6;81.3
78679;BME280;67994;59.334;13.528;2023-06-22T03:43:00;100700.0;;;18.7;82.2
78679;BME280;67994;59.334;13.528;2023-06-22T03:44:00;100700.0;;;18.8;80.0
78679;BME280;67994;59.334;13.528;2023-06-22T03:45:00;100700.0;;;18.9;80.2
78679;BME280;67994;59.334;13.528;2023-06-22T03:46:00;100700.0;;;19.3;79.4
78679;BME280;67994;59.334;13.528;2023-06-22T03:47:00;100700.0;;;19.8;78.7
78679;BME280;67994;59.334;13.528;2023-06-22T03:48:00;100700.0;;;20.0;77.0
78679;BME280;67994;59.334;13.528;2023-06-22T03:49:00;100700.0;;;20.2;76.6
78679;BME280;67994;59.334;13.528;2023-06-22T03:50:00;100700.0;;;20.4;76.2
78679;BME280;67994;59.334;13.528;2023-06-22T03:51:01;100700.0;;;19.8;76.8
78679;BME280;67994;59.334;13.528;2023-06-22T03:52:00;100700.0;;;19.7;77.2
78679;BME280;67994;59.334;13.528;2023-06-22T03:53:00;100700.0;;;19.6;78.0
78679;BME280;67994;59.334;13.528;2023-06-22T03:54:00;100700.0;;;19.7;76.9
78679;BME280;67994;59.334;13.528;2023-06-22T03:55:00;100700.0;;;19.9;77.1
78679;BME280;67994;59.334;13.528;2023-06-22T03:56:00;100700.0;;;19.8;78.1
78679;BME280;67994;59.334;13.528;2023-06-22T03:57:00;100700.0;;;19.4;77.1
78679;BME280;67994;59.334;13.528;2023-06-22T03:58:00;100700.0;;;19.9;77.0
78679;BME280;67994;59.334;13.528;2023-06-22T03:59:00;100700.0;;;20.4;75.5
78679;BME280;67994;59.334;13.528;2023-06-22T04:00:00;100700.0;;;20.5;75.3
78679;BME280;67994;59.334;13.528;2023-06-22T04:01:00;100700.0;;;20.8;74.8
78679;BME280;67994;59.334;13.528;2023-06-22T04:02:00;100700.0;;;20.7;75.0
78679;BME280;67994;59.334;13.528;2023-06-22T04:03:00;100700.0;;;20.8;74.2
78679;BME280;67994;59.334;13.528;2023-06-22T04:04:00;100700.0;;;20.6;75.0
78679;BME280;67994;59.334;13.528;2023-06-22T04:05:00;100700.0;;;20.9;73.7
78679;BME280;67994;59.334;13.528;2023-06-22T04:06:00;100700.0;;;20.7;74.5
78679;BME280;67994;59.334;13.528;2023-06-22T04:07:00;100700.0;;;20.8;74.4
78679;BME280;67994;59.334;13.528;2023-06-22T04:08:00;100700.0;;;21.2;72.6
78679;BME280;67994;59.334;13.528;2023-06-22T04:09:00;100700.0;;;21.4;74.3
78679;BME280;67994;59.334;13.528;2023-06-22T04:10:00;100700.0;;;20.8;73.8
78679;BME280;67994;59.334;13.528;2023-06-22T04:11:00;100700.0;;;21.1;73.2
78679;BME280;67994;59.334;13.528;2023-06-22T04:12:01;100700.0;;;21.1;72.6
78679;BME280;67994;59.334;13.528;2023-06-22T04:13:00;100700.0;;;20.9;73.8
78679;BME280;67994;59.334;13.528;2023-06-22T04:14:00;100700.0;;;21.2;73.1
78679;BME280;67994;59.334;13.528;2023-06-22T04:15:00;100700.0;;;20.8;73.7
78679;BME280;67994;59.334;13.528;2023-06-22T04:16:00;100700.0;;;21.0;73.0
78679;BME280;67994;59.334;13.528;2023-06-22T04:17:01;100700.0;;;21.3;72.4
78679;BME280;67994;59.334;13.528;2023-06-22T04:18:00;100700.0;;;21.0;73.0
78679;BME280;67994;59.334;13.528;2023-06-22T04:19:00;100700.0;;;21.1;73.0
78679;BME280;67994;59.334;13.528;2023-06-22T04:20:00;100700.0;;;21.1;73.0
78679;BME280;67994;59.334;13.528;2023-06-22T04:21:01;100700.0;;;20.8;73.4
78679;BME280;67994;59.334;13.528;2023-06-22T04:22:00;100700.0;;;21.4;71.8
78679;BME280;67994;59.334;13.528;2023-06-22T04:23:00;100700.0;;;21.2;72.7
78679;BME280;67994;59.334;13.528;2023-06-22T04:24:00;100700.0;;;21.4;71.4
78679;BME280;67994;59.334;13.528;2023-06-22T04:25:00;100700.0;;;21.5;72.0
78679;BME280;67994;59.334;13.528;2023-06-22T04:26:00;100700.0;;;21.7;71.2
78679;BME280;67994;59.334;13.528;2023-06-22T04:27:00;100700.0;;;22.1;70.3
78679;BME280;67994;59.334;13.528;2023-06-22T04:28:00;100700.0;;;21.7;71.2
78679;BME280;67994;59.334;13.528;2023-06-22T04:29:00;100700.0;;;21.9;70.7
78679;BME280;67994;59.334;13.528;2023-06-22T04:30:00;100700.0;;;21.6;70.8
78679;BME280;67994;59.334;13.528;2023-06-22T04:31:00;100700.0;;;21.6;70.9
78679;BME280;67994;59.334;13.528;2023-06-22T04:32:00;100700.0;;;21.8;71.1
78679;BME280;67994;59.334;13.528;2023-06-22T04:33:00;100700.0;;;21.5;71.8
78679;BME280;67994;59.334;13.528;2023-06-22T04:34:00;100700.0;;;21.7;71.3
78679;BME280;67994;59.334;13.528;2023-06-22T04:35:00;100700.0;;;21.6;71.1
78679;BME280;67994;59.334;13.528;2023-06-22T04:36:00;100700.0;;;21.5;70.9
78679;BME280;67994;59.334;13.528;2023-06-22T04:37:00;100700.0;;;21.3;71.2
78679;BME280;67994;59.334;13.528;2023-06-22T04:38:00;100700.0;;;21.6;70.5
78679;BME280;67994;59.334;13.528;2023-06-22T04:39:00;100700.0;;;21.5;70.7
78679;BME280;67994;59.334;13.528;2023-06-22T04:40:00;100700.0;;;21.5;71.1
78679;BME280;67994;59.334;13.528;2023-06-22T04:41:00;100700.0;;;21.6;70.5
78679;BME280;67994;59.334;13.528;2023-06-22T04:42:00;100700.0;;;21.4;70.4
78679;BME280;67994;59.334;13.528;2023-06-22T04:43:00;100700.0;;;21.4;70.8
78679;BME280;67994;59.334;13.528;2023-06-22T04:44:00;100700.0;;;21.3;71.0
78679;BME280;67994;59.334;13.528;2023-06-22T04:45:00;100700.0;;;21.1;71.7
78679;BME280;67994;59.334;13.528;2023-06-22T04:46:00;100700.0;;;21.5;70.5
78679;BME280;67994;59.334;13.528;2023-06-22T04:47:01;100700.0;;;21.6;70.2
78679;BME280;67994;59.334;13.528;2023-06-22T04:48:00;100700.0;;;21.7;70.0
78679;BME280;67994;59.334;13.528;2023-06-22T04:49:00;100700.0;;;21.4;70.4
78679;BME280;67994;59.334;13.528;2023-06-22T04:50:00;100700.0;;;21.6;70.9
78679;BME280;67994;59.334;13.528;2023-06-22T04:51:01;100700.0;;;20.8;71.9
78679;BME280;67994;59.334;13.528;2023-06-22T04:52:00;100700.0;;;21.2;71.3
78679;BME280;67994;59.334;13.528;2023-06-22T04:53:00;100700.0;;;20.9;72.1
78679;BME280;67994;59.334;13.528;2023-06-22T04:54:00;100700.0;;;21.3;70.8
78679;BME280;67994;59.334;13.528;2023-06-22T04:55:00;100700.0;;;21.4;70.7
78679;BME280;67994;59.334;13.528;2023-06-22T04:56:00;100700.0;;;21.1;71.0
78679;BME280;67994;59.334;13.528;2023-06-22T04:57:00;100700.0;;;21.0;71.0
78679;BME280;67994;59.334;13.528;2023-06-22T04:58:00;100700.0;;;21.5;70.9
78679;BME280;67994;59.334;13.528;2023-06-22T04:59:00;100700.0;;;21.6;70.1
78679;BME280;67994;59.334;13.528;2023-06-22T05:00:01;100700.0;;;22.0;70.3
78679;BME280;67994;59.334;13.528;2023-06-22T05:01:00;100700.0;;;21.4;70.5
78679;BME280;67994;59.334;13.528;2023-06-22T05:02:01;100700.0;;;21.7;70.0
78679;BME280;67994;59.334;13.528;2023-06-22T05:03:00;100700.0;;;21.8;70.2
78679;BME280;67994;59.334;13.528;2023-06-22T05:04:00;100700.0;;;21.1;70.8
78679;BME280;67994;59.334;13.528;2023-06-22T05:05:00;100700.0;;;21.0;70.7
78679;BME280;67994;59.334;13.528;2023-06-22T05:06:00;100700.0;;;20.9;71.3
78679;BME280;67994;59.334;13.528;2023-06-22T05:07:01;100700.0;;;21.1;70.9
78679;BME280;67994;59.334;13.528;2023-06-22T05:08:00;100700.0;;;21.6;69.2
78679;BME280;67994;59.334;13.528;2023-06-22T05:09:00;100700.0;;;21.0;70.3
78679;BME280;67994;59.334;13.528;2023-06-22T05:10:00;100700.0;;;21.2;69.4
78679;BME280;67994;59.334;13.528;2023-06-22T05:11:00;100700.0;;;21.2;69.3
78679;BME280;67994;59.334;13.528;2023-06-22T05:12:00;100700.0;;;21.2;69.8
78679;BME280;67994;59.334;13.528;2023-06-22T05:13:00;100700.0;;;21.0;70.5
78679;BME280;67994;59.334;13.528;2023-06-22T05:14:00;100700.0;;;21.3;69.8
78679;BME280;67994;59.334;13.528;2023-06-22T05:15:00;100700.0;;;20.9;70.1
78679;BME280;67994;59.334;13.528;2023-06-22T05:16:00;100700.0;;;20.8;70.5
78679;BME280;67994;59.334;13.528;2023-06-22T05:17:00;100700.0;;;20.5;71.2
78679;BME280;67994;59.334;13.528;2023-06-22T05:18:00;100700.0;;;20.8;70.3
78679;BME280;67994;59.334;13.528;2023-06-22T05:19:00;100700.0;;;21.1;70.2
78679;BME280;67994;59.334;13.528;2023-06-22T05:20:00;100700.0;;;21.0;70.1
78679;BME280;67994;59.334;13.528;2023-06-22T05:21:00;100700.0;;;21.0;70.1